Maysville, Colorado
Current Conditions -  °F | °C
As of 12:15 PM on Tuesday 21 Oct 2014 (Local Time) from KANK Reporting Station
Clear Clear  
Wind Chill: 65°   Ceiling: Unl
Heat Index: 65°   Visibility: 10mi
Dew Point: 35°   Wind: 3mph
Humidity: 34%   Direction: 70°ENE
Pressure: 30.22"   Gusts: NA
Location:  38.5561°N, 106.066°W
Report Text: KANK 211815Z AUTO 07003KT 10SM CLR 18/02 A3022 RMK AO1 T01810018
Loading
Personal Weather Stations






























Interactive Weather Map
Tropical Storm Tracking
New forecast layout! Learn more

10-Day Weather Forecast

Advertisements
Track Severe Weather on mobile